Crichton, West Virginia
Current Conditions -  °F | °C
As of 7:35 PM on Friday 19 Dec 2014 (Local Time) from KLWB Reporting Station
Clear Clear  
Wind Chill: 28°   Ceiling: Unl
Heat Index: 28°   Visibility: 10mi
Dew Point: 21°   Wind: 3mph
Humidity: 78%   Direction: 270°W
Pressure: 30.19"   Gusts: NA
Location:  38.06°N, 80.72°W
Report Text: KLWB 200035Z AUTO 27003KT 10SM CLR M02/M06 A3019 RMK AO2 T10251059
Loading
Personal Weather Stations






























Interactive Weather Map New forecast layout! Learn more

10-Day Weather Forecast

Advertisements
Track Severe Weather on mobile